createdAt,value
2019-05-01T00:01:26.110Z,41.00
2019-05-01T00:04:37.602Z,40.50
2019-05-01T00:07:36.177Z,40.40
2019-05-01T00:10:29.395Z,40.70
2019-05-01T00:13:23.792Z,41.00
2019-05-01T00:16:19.920Z,40.90
2019-05-01T00:19:14.316Z,40.80
2019-05-01T00:22:09.105Z,41.00
2019-05-01T00:25:03.029Z,41.00
2019-05-01T00:27:56.592Z,41.00
2019-05-01T00:30:50.454Z,41.10
2019-05-01T00:33:43.569Z,41.30
2019-05-01T00:36:37.407Z,41.90
2019-05-01T00:39:31.040Z,41.80
2019-05-01T00:42:24.238Z,42.60
2019-05-01T00:45:17.117Z,42.90
2019-05-01T00:48:10.333Z,42.80
2019-05-01T00:51:03.075Z,43.40
2019-05-01T00:53:56.668Z,43.00
2019-05-01T00:57:13.036Z,43.00
2019-05-01T01:00:43.265Z,43.40
2019-05-01T01:03:35.102Z,43.20
2019-05-01T01:06:28.486Z,43.50
2019-05-01T01:09:22.743Z,43.00
2019-05-01T01:12:15.642Z,43.70
2019-05-01T01:15:08.819Z,43.80
2019-05-01T01:18:01.376Z,43.70
2019-05-01T01:20:53.687Z,43.60
2019-05-01T01:23:47.973Z,43.50
2019-05-01T01:26:40.475Z,43.90
2019-05-01T01:29:35.578Z,43.90
2019-05-01T01:32:28.978Z,43.70
2019-05-01T01:35:23.889Z,43.90
2019-05-01T01:38:17.217Z,44.30
2019-05-01T01:41:10.227Z,45.90
2019-05-01T01:44:13.628Z,45.60
2019-05-01T01:47:06.198Z,45.40
2019-05-01T01:50:01.288Z,45.20
2019-05-01T01:52:57.892Z,45.50
2019-05-01T01:55:53.332Z,45.70
2019-05-01T01:58:48.876Z,44.80
2019-05-01T02:02:01.838Z,45.90
2019-05-01T02:05:07.031Z,45.90
2019-05-01T02:08:00.022Z,45.50
2019-05-01T02:10:53.056Z,45.00
2019-05-01T02:13:46.428Z,45.50
2019-05-01T02:16:40.004Z,45.40
2019-05-01T02:19:32.778Z,45.10
2019-05-01T02:22:27.103Z,45.60
2019-05-01T02:25:21.600Z,45.50
2019-05-01T02:28:29.816Z,44.90
2019-05-01T02:31:36.360Z,45.50
2019-05-01T02:34:30.479Z,45.50
2019-05-01T02:37:24.607Z,45.20
2019-05-01T02:40:34.998Z,45.30
2019-05-01T02:43:30.895Z,44.70
2019-05-01T02:46:26.112Z,45.50
2019-05-01T02:49:23.662Z,45.90
2019-05-01T02:52:19.630Z,45.20
2019-05-01T02:55:23.293Z,44.90
2019-05-01T02:58:18.623Z,45.10
2019-05-01T03:01:14.425Z,45.00
2019-05-01T03:04:08.995Z,45.30
2019-05-01T03:07:04.053Z,45.20
2019-05-01T03:10:01.426Z,45.50
2019-05-01T03:12:59.798Z,45.20
2019-05-01T03:15:56.188Z,45.80
2019-05-01T03:18:54.658Z,46.30
2019-05-01T03:22:13.553Z,45.50
2019-05-01T03:25:07.996Z,46.00
2019-05-01T03:28:02.552Z,45.10
2019-05-01T03:30:58.942Z,44.90
2019-05-01T03:33:54.577Z,44.60
2019-05-01T03:36:50.214Z,44.40
2019-05-01T03:39:46.062Z,44.20
2019-05-01T03:42:40.649Z,44.00
2019-05-01T03:45:35.910Z,43.90
2019-05-01T03:48:31.158Z,43.80
2019-05-01T03:51:25.974Z,43.80
2019-05-01T03:54:19.200Z,43.80
2019-05-01T03:57:13.136Z,43.60
2019-05-01T04:00:07.880Z,43.80
2019-05-01T04:03:24.795Z,43.60
2019-05-01T04:06:18.099Z,43.80
2019-05-01T04:09:11.177Z,43.10
2019-05-01T04:12:05.497Z,42.80
2019-05-01T04:14:59.498Z,42.60
2019-05-01T04:17:55.552Z,42.40
2019-05-01T04:20:49.556Z,42.10
2019-05-01T04:23:44.611Z,42.00
2019-05-01T04:27:02.423Z,42.20
2019-05-01T04:30:13.493Z,41.90
2019-05-01T04:33:16.557Z,41.60
2019-05-01T04:36:16.359Z,41.60
2019-05-01T04:39:11.831Z,41.40
2019-05-01T04:42:06.876Z,41.30
2019-05-01T04:45:01.510Z,41.20
2019-05-01T04:48:12.001Z,41.10
2019-05-01T04:51:05.515Z,41.00
2019-05-01T04:53:59.084Z,41.00
2019-05-01T04:56:53.921Z,41.30
2019-05-01T04:59:48.897Z,41.60
2019-05-01T05:02:48.411Z,41.70
2019-05-01T05:09:54.767Z,41.70
2019-05-01T05:17:09.567Z,41.90
2019-05-01T05:34:14.143Z,43.10
2019-05-01T05:37:25.214Z,43.30
2019-05-01T05:40:19.708Z,43.40
2019-05-01T05:43:13.534Z,43.50
2019-05-01T05:46:25.406Z,43.50
2019-05-01T05:49:27.232Z,43.60
2019-05-01T05:52:32.266Z,43.80
2019-05-01T05:55:40.801Z,43.70
2019-05-01T05:58:58.917Z,44.00
2019-05-01T06:02:03.142Z,43.80
2019-05-01T06:05:20.713Z,44.10
2019-05-01T06:08:23.658Z,44.10
2019-05-01T06:11:45.138Z,44.20
2019-05-01T06:15:02.294Z,44.50
2019-05-01T06:18:07.341Z,44.60
2019-05-01T06:21:13.907Z,44.70
2019-05-01T06:24:28.599Z,44.80
2019-05-01T06:27:49.371Z,45.00
2019-05-01T06:30:47.231Z,45.00
2019-05-01T06:33:44.336Z,44.90
2019-05-01T06:36:36.673Z,45.00
2019-05-01T06:43:14.859Z,45.30
2019-05-01T06:46:45.653Z,45.50
2019-05-01T06:50:17.909Z,45.60
2019-05-01T06:56:30.501Z,45.90
2019-05-01T06:59:31.395Z,46.00
2019-05-01T07:02:25.592Z,45.90
2019-05-01T07:05:21.100Z,46.10
2019-05-01T07:08:25.053Z,46.30
2019-05-01T07:11:29.577Z,46.50
2019-05-01T07:14:27.059Z,46.50
2019-05-01T07:17:25.164Z,46.70
2019-05-01T07:20:38.446Z,46.70
2019-05-01T07:23:40.328Z,46.60
2019-05-01T07:26:35.483Z,47.10
2019-05-01T07:29:33.071Z,47.30
2019-05-01T07:33:53.203Z,47.20
2019-05-01T07:37:10.510Z,47.10
2019-05-01T07:39:28.783Z,47.20
2019-05-01T07:54:12.610Z,47.20
2019-05-01T07:57:14.931Z,47.40
2019-05-01T08:00:36.975Z,47.60
2019-05-01T08:03:42.560Z,47.60
2019-05-01T08:06:52.011Z,47.30
2019-05-01T08:10:11.290Z,47.40
2019-05-01T08:13:42.400Z,47.40
2019-05-01T08:17:01.139Z,47.40
2019-05-01T08:19:58.439Z,47.30
2019-05-01T08:22:55.265Z,47.20
2019-05-01T08:26:14.233Z,47.40
2019-05-01T08:29:58.898Z,47.70
2019-05-01T08:32:57.209Z,47.70
2019-05-01T08:35:50.935Z,47.50
2019-05-01T08:39:25.653Z,47.60
2019-05-01T08:46:26.806Z,47.90
2019-05-01T08:49:27.527Z,48.00
2019-05-01T08:52:24.191Z,47.50
2019-05-01T08:55:23.105Z,47.20
2019-05-01T08:58:21.092Z,46.80
2019-05-01T09:01:17.869Z,46.60
2019-05-01T09:04:13.603Z,46.40
2019-05-01T09:07:14.747Z,46.40
2019-05-01T09:10:17.065Z,46.20
2019-05-01T09:13:18.947Z,46.00
2019-05-01T09:16:36.035Z,45.70
2019-05-01T09:19:43.657Z,45.70
2019-05-01T09:23:16.148Z,45.50
2019-05-01T09:26:30.547Z,45.60
2019-05-01T09:29:52.860Z,45.50
2019-05-01T09:33:26.259Z,45.30
2019-05-01T09:36:23.523Z,45.50
2019-05-01T09:39:28.157Z,44.60
2019-05-01T09:42:27.702Z,44.60
2019-05-01T09:45:21.687Z,44.70
2019-05-01T09:48:19.815Z,44.70
2019-05-01T09:51:47.670Z,44.60
2019-05-01T09:54:55.435Z,44.70
2019-05-01T09:57:58.042Z,43.90
2019-05-01T10:01:12.046Z,43.50
2019-05-01T10:04:09.682Z,43.50
2019-05-01T10:07:04.838Z,43.10
2019-05-01T10:10:01.365Z,42.70
2019-05-01T10:17:17.681Z,42.10
2019-05-01T10:20:18.766Z,42.00
2019-05-01T10:23:29.766Z,42.10
2019-05-01T10:27:00.113Z,41.80
2019-05-01T10:30:23.877Z,41.60
2019-05-01T10:33:22.734Z,41.50
2019-05-01T10:36:37.449Z,41.50
2019-05-01T10:39:33.318Z,41.30
2019-05-01T10:42:30.346Z,41.10
2019-05-01T10:45:24.603Z,41.10
2019-05-01T10:48:18.705Z,41.10
2019-05-01T10:51:19.134Z,40.90
2019-05-01T10:54:15.907Z,40.90
2019-05-01T10:57:14.394Z,41.20
2019-05-01T11:00:11.065Z,41.20
2019-05-01T11:03:08.991Z,41.10
2019-05-01T11:06:03.210Z,41.20
2019-05-01T11:09:04.281Z,41.50
2019-05-01T11:11:54.487Z,41.50
2019-05-01T11:14:49.695Z,41.50
2019-05-01T11:17:51.335Z,41.50
2019-05-01T11:20:52.432Z,41.80
2019-05-01T11:23:48.735Z,41.90
2019-05-01T11:30:14.299Z,41.80
2019-05-01T11:33:36.323Z,41.80
2019-05-01T11:36:49.026Z,41.80
2019-05-01T11:43:46.423Z,41.50
2019-05-01T11:46:44.088Z,41.50
2019-05-01T11:49:56.553Z,41.80
2019-05-01T11:56:46.532Z,41.80
2019-05-01T12:00:03.892Z,41.80
2019-05-01T12:03:03.932Z,41.50
2019-05-01T12:05:58.777Z,41.30
2019-05-01T12:08:52.748Z,41.00
2019-05-01T12:11:49.167Z,40.80
2019-05-01T12:14:46.442Z,40.50
2019-05-01T12:17:47.796Z,40.20
2019-05-01T12:20:44.891Z,40.00
2019-05-01T12:23:39.537Z,39.80
2019-05-01T12:26:42.873Z,39.70
2019-05-01T12:29:39.161Z,39.70
2019-05-01T12:32:35.886Z,39.50
2019-05-01T12:35:38.666Z,39.40
2019-05-01T12:38:39.304Z,39.40
2019-05-01T12:41:48.078Z,39.60
2019-05-01T12:44:46.794Z,39.50
2019-05-01T12:48:09.892Z,39.50
2019-05-01T12:51:14.430Z,39.40
2019-05-01T12:54:33.124Z,39.40
2019-05-01T12:57:29.097Z,39.40
2019-05-01T13:00:57.377Z,39.40
2019-05-01T13:03:52.580Z,39.20
2019-05-01T13:06:57.349Z,38.90
2019-05-01T13:09:57.402Z,38.90
2019-05-01T13:12:51.694Z,38.70
2019-05-01T13:15:46.948Z,38.60
2019-05-01T13:18:41.528Z,38.70
2019-05-01T13:21:36.554Z,38.70
2019-05-01T13:24:31.983Z,38.70
2019-05-01T13:27:36.119Z,38.80
2019-05-01T13:30:47.201Z,38.80
2019-05-01T13:33:42.229Z,38.90
2019-05-01T13:36:37.217Z,38.80
2019-05-01T13:39:33.180Z,38.90
2019-05-01T13:42:27.924Z,38.80
2019-05-01T13:45:22.697Z,39.50
2019-05-01T13:48:17.451Z,39.00
2019-05-01T13:51:11.301Z,39.20
2019-05-01T13:54:06.422Z,39.40
2019-05-01T13:57:01.983Z,39.70
2019-05-01T13:59:55.991Z,39.90
2019-05-01T14:02:50.958Z,40.00
2019-05-01T14:05:43.612Z,40.30
2019-05-01T14:08:35.950Z,40.40
2019-05-01T14:11:31.238Z,40.50
2019-05-01T14:14:25.845Z,40.60
2019-05-01T14:17:19.112Z,40.60
2019-05-01T14:20:31.187Z,40.70
2019-05-01T14:23:52.799Z,39.90
2019-05-01T14:26:46.947Z,39.90
2019-05-01T14:29:41.642Z,39.80
2019-05-01T14:32:36.124Z,39.80
2019-05-01T14:35:31.026Z,40.00
2019-05-01T14:38:25.203Z,39.40
2019-05-01T14:41:19.976Z,39.30
2019-05-01T14:44:15.779Z,40.10
2019-05-01T14:47:10.014Z,39.90
2019-05-01T14:50:03.205Z,40.00
2019-05-01T14:52:58.297Z,39.30
2019-05-01T14:55:51.039Z,40.00
2019-05-01T14:58:43.919Z,40.00
2019-05-01T15:01:38.909Z,39.90
2019-05-01T15:04:32.495Z,40.20
2019-05-01T15:07:27.083Z,40.40
2019-05-01T15:10:22.599Z,40.30
2019-05-01T15:13:27.957Z,40.50
2019-05-01T15:16:29.645Z,40.50
2019-05-01T15:19:27.242Z,40.50
2019-05-01T15:22:22.938Z,40.50
2019-05-01T15:25:25.635Z,40.80
2019-05-01T15:28:20.993Z,40.80
2019-05-01T15:31:15.469Z,40.80
2019-05-01T15:34:08.954Z,40.70
2019-05-01T15:37:03.182Z,40.90
2019-05-01T15:40:03.895Z,41.00
2019-05-01T15:43:29.018Z,40.80
2019-05-01T15:46:22.383Z,41.00
2019-05-01T15:49:16.638Z,40.90
2019-05-01T15:52:12.878Z,40.90
2019-05-01T15:55:08.877Z,41.10
2019-05-01T15:58:02.277Z,41.10
2019-05-01T16:00:54.818Z,41.20
2019-05-01T16:03:50.639Z,41.20
2019-05-01T16:06:44.953Z,41.30
2019-05-01T16:09:38.328Z,41.40
2019-05-01T16:12:45.081Z,41.40
2019-05-01T16:15:40.056Z,41.40
2019-05-01T16:18:35.656Z,41.50
2019-05-01T16:21:30.354Z,41.60
2019-05-01T16:24:23.243Z,41.60
2019-05-01T16:27:17.731Z,41.60
2019-05-01T16:30:12.489Z,41.70
2019-05-01T16:33:07.413Z,42.50
2019-05-01T16:36:04.366Z,41.80
2019-05-01T16:39:15.105Z,41.80
2019-05-01T16:42:09.165Z,41.80
2019-05-01T16:45:02.482Z,41.90
2019-05-01T16:47:57.224Z,41.90
2019-05-01T16:50:50.225Z,41.90
2019-05-01T16:53:44.189Z,42.00
2019-05-01T16:56:39.518Z,41.90
2019-05-01T16:59:35.612Z,42.00
2019-05-01T17:03:02.838Z,42.00
2019-05-01T17:06:08.363Z,42.00
2019-05-01T17:09:25.823Z,42.00
2019-05-01T17:12:21.472Z,42.10
2019-05-01T17:15:14.889Z,42.30
2019-05-01T17:18:09.391Z,42.10
2019-05-01T17:21:06.305Z,42.20
2019-05-01T17:23:59.668Z,42.20
2019-05-01T17:26:53.205Z,42.20
2019-05-01T17:29:49.586Z,41.50
2019-05-01T17:32:45.364Z,40.90
2019-05-01T17:35:41.649Z,40.40
2019-05-01T17:38:48.948Z,40.20
2019-05-01T17:41:33.052Z,39.30
2019-05-01T17:44:27.265Z,38.90
2019-05-01T17:47:26.730Z,38.50
2019-05-01T17:50:21.014Z,38.00
2019-05-01T17:53:17.078Z,37.60
2019-05-01T17:56:15.234Z,37.50
2019-05-01T17:59:08.166Z,37.30
2019-05-01T18:02:26.990Z,37.10
2019-05-01T18:06:01.370Z,36.80
2019-05-01T18:09:02.478Z,36.80
2019-05-01T18:11:52.172Z,36.60
2019-05-01T18:14:42.911Z,36.70
2019-05-01T18:17:36.982Z,36.70
2019-05-01T18:20:31.068Z,36.50
2019-05-01T18:23:42.744Z,36.50
2019-05-01T18:26:44.958Z,36.40
2019-05-01T18:29:54.324Z,36.30
2019-05-01T18:32:52.053Z,36.20
2019-05-01T18:35:49.128Z,36.40
2019-05-01T18:38:55.607Z,36.00
2019-05-01T18:41:58.356Z,36.00
2019-05-01T18:44:55.218Z,36.20
2019-05-01T18:47:50.325Z,36.20
2019-05-01T18:50:49.353Z,36.00
2019-05-01T18:53:40.437Z,36.00
2019-05-01T18:56:38.121Z,36.30
2019-05-01T18:59:27.665Z,36.20
2019-05-01T19:02:25.099Z,36.20
2019-05-01T19:05:18.789Z,36.10
2019-05-01T19:08:13.738Z,36.10
2019-05-01T19:11:12.626Z,36.10
2019-05-01T19:14:05.644Z,36.10
2019-05-01T19:16:59.690Z,36.10
2019-05-01T19:19:54.341Z,36.30
2019-05-01T19:22:49.662Z,36.10
2019-05-01T19:25:46.741Z,36.10
2019-05-01T19:28:40.896Z,36.20
2019-05-01T19:31:34.295Z,36.30
2019-05-01T19:34:28.918Z,36.20
2019-05-01T19:37:23.930Z,36.30
2019-05-01T19:40:19.098Z,36.60
2019-05-01T19:43:13.576Z,36.50
2019-05-01T19:46:08.139Z,36.30
2019-05-01T19:49:03.731Z,36.30
2019-05-01T19:52:00.718Z,36.30
2019-05-01T19:54:55.829Z,36.40
2019-05-01T19:57:51.392Z,36.40
2019-05-01T20:01:04.461Z,36.30
2019-05-01T20:03:59.159Z,36.50
2019-05-01T20:06:52.617Z,36.50
2019-05-01T20:09:56.621Z,36.40
2019-05-01T20:12:42.257Z,36.50
2019-05-01T20:15:36.975Z,36.50
2019-05-01T20:18:31.915Z,36.50
2019-05-01T20:21:25.879Z,36.50
2019-05-01T20:24:19.393Z,36.40
2019-05-01T20:27:13.926Z,36.50
2019-05-01T20:30:08.869Z,36.50
2019-05-01T20:33:03.765Z,36.50
2019-05-01T20:36:00.295Z,36.30
2019-05-01T20:38:53.584Z,36.30
2019-05-01T20:41:48.551Z,36.50
2019-05-01T20:44:42.992Z,36.40
2019-05-01T20:47:45.125Z,36.40
2019-05-01T20:50:31.560Z,36.50
2019-05-01T20:53:24.093Z,36.30
2019-05-01T20:56:47.853Z,36.40
2019-05-01T20:59:41.012Z,36.40
2019-05-01T21:02:34.574Z,36.60
2019-05-01T21:05:39.069Z,36.50
2019-05-01T21:08:52.937Z,36.60
2019-05-01T21:11:49.268Z,36.60
2019-05-01T21:14:45.265Z,36.70
2019-05-01T21:17:37.431Z,36.60
2019-05-01T21:20:31.250Z,36.70
2019-05-01T21:23:25.997Z,36.60
2019-05-01T21:26:20.077Z,37.10
2019-05-01T21:29:14.005Z,36.60
2019-05-01T21:32:07.436Z,36.80
2019-05-01T21:35:01.620Z,36.90
2019-05-01T21:37:54.761Z,36.90
2019-05-01T21:40:48.534Z,36.70
2019-05-01T21:43:42.523Z,36.70
2019-05-01T21:46:38.949Z,36.50
2019-05-01T21:49:33.123Z,36.50
2019-05-01T21:52:27.084Z,36.60
2019-05-01T21:55:21.458Z,36.60
2019-05-01T21:58:15.316Z,36.50
2019-05-01T22:01:09.707Z,36.50
2019-05-01T22:04:03.785Z,36.60
2019-05-01T22:06:59.367Z,36.50
2019-05-01T22:09:53.633Z,36.50
2019-05-01T22:12:50.805Z,36.80
2019-05-01T22:15:49.004Z,36.70
2019-05-01T22:18:52.268Z,36.80
2019-05-01T22:22:07.474Z,36.70
2019-05-01T22:25:11.620Z,36.80
2019-05-01T22:28:19.998Z,36.60
2019-05-01T22:31:36.053Z,36.60
2019-05-01T22:34:40.596Z,36.60
2019-05-01T22:37:33.984Z,36.90
2019-05-01T22:40:50.167Z,36.80
2019-05-01T22:43:44.306Z,36.90
2019-05-01T22:46:38.936Z,36.80
2019-05-01T22:49:34.260Z,37.00
2019-05-01T22:52:28.008Z,36.90
2019-05-01T22:55:25.373Z,37.00
2019-05-01T22:58:15.312Z,37.20
2019-05-01T23:01:08.358Z,36.90
2019-05-01T23:04:03.761Z,36.80
2019-05-01T23:06:57.154Z,36.90
2019-05-01T23:09:50.281Z,37.00
2019-05-01T23:12:43.374Z,36.90
2019-05-01T23:15:36.554Z,37.00
2019-05-01T23:18:30.652Z,36.90
2019-05-01T23:21:23.765Z,36.90
2019-05-01T23:24:16.610Z,36.90
2019-05-01T23:27:09.921Z,37.10
2019-05-01T23:30:03.098Z,37.10
2019-05-01T23:32:57.031Z,37.40
2019-05-01T23:35:50.427Z,37.50
2019-05-01T23:38:43.533Z,37.00
2019-05-01T23:41:45.533Z,36.40
2019-05-01T23:44:31.440Z,35.90
2019-05-01T23:47:26.684Z,36.00
2019-05-01T23:50:20.341Z,36.50
2019-05-01T23:53:15.133Z,37.00
2019-05-01T23:56:08.477Z,37.10
2019-05-01T23:59:02.662Z,37.70
